createdAt,value
2023-02-17T00:01:01.106Z,100451.09
2023-02-17T00:03:28.343Z,100445.66
2023-02-17T00:05:55.526Z,100443.13
2023-02-17T00:08:22.664Z,100443.53
2023-02-17T00:10:57.501Z,100447.09
2023-02-17T00:13:24.666Z,100450.66
2023-02-17T00:15:51.921Z,100441.69
2023-02-17T00:18:20.517Z,100443.38
2023-02-17T00:20:47.752Z,100455.81
2023-02-17T00:23:14.926Z,100437.41
2023-02-17T00:25:42.142Z,100435.69
2023-02-17T00:28:09.389Z,100436.47
2023-02-17T00:30:37.624Z,100428.91
2023-02-17T00:33:05.139Z,100431.75
2023-02-17T00:35:33.702Z,100434.91
2023-02-17T00:38:00.996Z,100429.22
2023-02-17T00:40:28.153Z,100428.78
2023-02-17T00:42:55.726Z,100430.09
2023-02-17T00:45:22.913Z,100422.69
2023-02-17T00:47:50.079Z,100417.00
2023-02-17T00:50:17.591Z,100414.00
2023-02-17T00:52:46.178Z,100428.41
2023-02-17T00:55:13.337Z,100419.13
2023-02-17T00:57:40.503Z,100424.28
2023-02-17T01:00:08.978Z,100424.16
2023-02-17T01:02:36.155Z,100419.59
2023-02-17T01:05:03.678Z,100424.16
2023-02-17T01:07:30.888Z,100425.72
2023-02-17T01:09:59.398Z,100428.19
2023-02-17T01:12:28.193Z,100433.28
2023-02-17T01:14:55.350Z,100429.75
2023-02-17T01:17:24.071Z,100433.16
2023-02-17T01:19:51.218Z,100431.19
2023-02-17T01:22:18.412Z,100428.47
2023-02-17T01:24:45.613Z,100428.22
2023-02-17T01:27:14.329Z,100417.34
2023-02-17T01:29:41.609Z,100415.50
2023-02-17T01:32:08.775Z,100410.06
2023-02-17T01:34:36.866Z,100413.34
2023-02-17T01:37:04.385Z,100409.78
2023-02-17T01:39:32.004Z,100398.69
2023-02-17T01:41:59.199Z,100407.78
2023-02-17T01:44:31.579Z,100396.66
2023-02-17T01:46:58.802Z,100393.94
2023-02-17T01:49:31.273Z,100402.97
2023-02-17T01:52:05.579Z,100391.09
2023-02-17T01:54:37.674Z,100395.66
2023-02-17T01:57:10.983Z,100389.97
2023-02-17T01:59:40.827Z,100383.66
2023-02-17T02:02:08.600Z,100378.25
2023-02-17T02:04:39.013Z,100374.84
2023-02-17T02:07:12.755Z,100368.25
2023-02-17T02:09:45.976Z,100369.00
2023-02-17T02:12:18.251Z,100358.97
2023-02-17T02:14:48.834Z,100360.00
2023-02-17T02:17:27.198Z,100350.56
2023-02-17T02:20:18.663Z,100341.28
2023-02-17T02:23:09.725Z,100334.16
2023-02-17T02:26:00.076Z,100336.72
2023-02-17T02:28:44.620Z,100329.44
2023-02-17T02:31:28.304Z,100328.59
2023-02-17T02:33:59.531Z,100325.16
2023-02-17T02:36:30.979Z,100324.00
2023-02-17T02:39:02.691Z,100317.56
2023-02-17T02:41:33.969Z,100315.88
2023-02-17T02:44:03.417Z,100308.59
2023-02-17T02:46:30.603Z,100311.31
2023-02-17T02:49:00.233Z,100300.47
2023-02-17T02:51:43.542Z,100295.03
2023-02-17T02:54:30.902Z,100290.44
2023-02-17T02:57:19.357Z,100295.59
2023-02-17T02:59:54.574Z,100285.59
2023-02-17T03:02:29.281Z,100290.03
2023-02-17T03:05:05.095Z,100284.03
2023-02-17T03:07:36.278Z,100288.59
2023-02-17T03:10:04.002Z,100283.44
2023-02-17T03:12:31.717Z,100286.03
2023-02-17T03:15:03.476Z,100278.19
2023-02-17T03:17:30.821Z,100270.63
2023-02-17T03:20:00.251Z,100271.19
2023-02-17T03:22:31.924Z,100271.75
2023-02-17T03:24:59.120Z,100269.06
2023-02-17T03:27:26.860Z,100273.19
2023-02-17T03:29:54.415Z,100269.75
2023-02-17T03:32:21.958Z,100267.63
2023-02-17T03:34:49.372Z,100272.31
2023-02-17T03:37:17.923Z,100281.03
2023-02-17T03:39:45.142Z,100288.19
2023-02-17T03:42:12.281Z,100280.88
2023-02-17T03:44:39.466Z,100274.47
2023-02-17T03:47:07.291Z,100282.75
2023-02-17T03:49:34.664Z,100283.72
2023-02-17T03:52:01.889Z,100283.91
2023-02-17T03:54:30.470Z,100282.44
2023-02-17T03:56:57.803Z,100273.59
2023-02-17T03:59:25.102Z,100283.59
2023-02-17T04:01:52.262Z,100271.91
2023-02-17T04:04:19.681Z,100278.31
2023-02-17T04:06:46.978Z,100286.63
2023-02-17T04:09:14.321Z,100296.00
2023-02-17T04:11:42.915Z,100288.31
2023-02-17T04:14:10.085Z,100287.19
2023-02-17T04:16:37.430Z,100290.59
2023-02-17T04:19:05.266Z,100286.91
2023-02-17T04:21:32.555Z,100281.16
2023-02-17T04:24:00.708Z,100286.75
2023-02-17T04:26:28.314Z,100279.44
2023-02-17T04:28:56.900Z,100275.16
2023-02-17T04:31:24.408Z,100280.19
2023-02-17T04:33:51.801Z,100281.88
2023-02-17T04:36:19.066Z,100281.59
2023-02-17T04:38:46.224Z,100281.28
2023-02-17T04:41:13.336Z,100286.56
2023-02-17T04:43:40.504Z,100283.31
2023-02-17T04:46:09.465Z,100284.00
2023-02-17T04:48:36.902Z,100279.16
2023-02-17T04:51:04.908Z,100281.72
2023-02-17T04:53:32.091Z,100279.84
2023-02-17T04:55:59.233Z,100284.13
2023-02-17T04:58:26.430Z,100281.13
2023-02-17T05:00:53.592Z,100275.84
2023-02-17T05:03:22.156Z,100271.69
2023-02-17T05:05:50.000Z,100278.97
2023-02-17T05:08:17.209Z,100281.53
2023-02-17T05:10:44.374Z,100271.69
2023-02-17T05:13:11.618Z,100272.13
2023-02-17T05:15:38.885Z,100278.41
2023-02-17T05:18:06.143Z,100277.25
2023-02-17T05:20:34.669Z,100271.69
2023-02-17T05:23:01.861Z,100271.81
2023-02-17T05:25:29.534Z,100265.78
2023-02-17T05:27:56.830Z,100273.66
2023-02-17T05:30:24.164Z,100269.78
2023-02-17T05:32:51.338Z,100263.91
2023-02-17T05:35:18.740Z,100270.34
2023-02-17T05:37:47.286Z,100275.88
2023-02-17T05:40:14.491Z,100277.75
2023-02-17T05:42:41.668Z,100272.88
2023-02-17T05:45:09.023Z,100269.00
2023-02-17T05:47:36.254Z,100269.56
2023-02-17T05:50:03.817Z,100278.41
2023-02-17T05:52:31.544Z,100276.72
2023-02-17T05:55:00.072Z,100275.25
2023-02-17T05:57:27.226Z,100279.81
2023-02-17T05:59:54.430Z,100281.53
2023-02-17T06:02:21.644Z,100292.09
2023-02-17T06:04:48.938Z,100294.69
2023-02-17T06:07:16.125Z,100293.53
2023-02-17T06:09:43.290Z,100289.25
2023-02-17T06:12:11.844Z,100274.78
2023-02-17T06:14:39.013Z,100275.53
2023-02-17T06:17:06.152Z,100274.22
2023-02-17T06:19:33.286Z,100273.34
2023-02-17T06:22:00.560Z,100273.59
2023-02-17T06:24:27.769Z,100264.75
2023-02-17T06:26:54.905Z,100266.47
2023-02-17T06:29:23.533Z,100259.47
2023-02-17T06:31:50.812Z,100252.00
2023-02-17T06:34:18.092Z,100262.59
2023-02-17T06:36:45.314Z,100267.88
2023-02-17T06:39:12.496Z,100260.41
2023-02-17T06:41:39.670Z,100270.16
2023-02-17T06:44:06.823Z,100274.72
2023-02-17T06:46:35.351Z,100279.00
2023-02-17T06:49:02.748Z,100284.28
2023-02-17T06:51:30.169Z,100283.25
2023-02-17T06:53:57.335Z,100296.25
2023-02-17T06:56:24.489Z,100301.22
2023-02-17T06:58:51.864Z,100290.06
2023-02-17T07:01:21.846Z,100297.59
2023-02-17T07:03:50.399Z,100300.88
2023-02-17T07:06:18.047Z,100301.56
2023-02-17T07:08:45.615Z,100304.84
2023-02-17T07:11:14.348Z,100309.13
2023-02-17T07:13:42.540Z,100306.41
2023-02-17T07:16:12.630Z,100301.38
2023-02-17T07:18:40.275Z,100291.88
2023-02-17T07:21:09.348Z,100295.16
2023-02-17T07:23:37.034Z,100293.16
2023-02-17T07:26:06.177Z,100281.41
2023-02-17T07:28:33.540Z,100284.66
2023-02-17T07:31:05.323Z,100285.91
2023-02-17T07:33:32.414Z,100289.19
2023-02-17T07:35:59.480Z,100295.63
2023-02-17T07:38:28.018Z,100296.88
2023-02-17T07:40:55.921Z,100295.69
2023-02-17T07:43:23.544Z,100298.41
2023-02-17T07:45:54.166Z,100297.84
2023-02-17T07:48:21.379Z,100297.50
2023-02-17T07:50:48.532Z,100288.50
2023-02-17T07:53:15.687Z,100275.94
2023-02-17T07:55:44.220Z,100288.03
2023-02-17T07:58:11.409Z,100292.47
2023-02-17T08:00:38.670Z,100285.88
2023-02-17T08:03:05.820Z,100293.00
2023-02-17T08:05:32.992Z,100292.16
2023-02-17T08:08:00.159Z,100295.97
2023-02-17T08:10:27.367Z,100292.22
2023-02-17T08:12:55.923Z,100293.78
2023-02-17T08:15:23.196Z,100298.91
2023-02-17T08:17:51.607Z,100295.31
2023-02-17T08:20:19.121Z,100290.75
2023-02-17T08:22:46.292Z,100287.56
2023-02-17T08:25:13.435Z,100281.97
2023-02-17T08:27:40.669Z,100279.91
2023-02-17T08:30:10.844Z,100278.91
2023-02-17T08:32:38.158Z,100278.59
2023-02-17T08:35:06.161Z,100276.88
2023-02-17T08:37:33.601Z,100285.06
2023-02-17T08:40:00.946Z,100290.00
2023-02-17T08:42:28.642Z,100282.59
2023-02-17T08:44:55.890Z,100277.16
2023-02-17T08:47:24.419Z,100282.97
2023-02-17T08:49:51.566Z,100268.91
2023-02-17T08:52:18.818Z,100270.59
2023-02-17T08:54:45.977Z,100270.28
2023-02-17T08:57:13.132Z,100260.06
2023-02-17T08:59:40.318Z,100272.81
2023-02-17T09:02:07.467Z,100262.63
2023-02-17T09:04:36.020Z,100260.78
2023-02-17T09:07:03.196Z,100270.28
2023-02-17T09:09:30.372Z,100268.75
2023-02-17T09:11:57.961Z,100265.03
2023-02-17T09:14:25.515Z,100256.53
2023-02-17T09:16:54.248Z,100258.63
2023-02-17T09:19:22.060Z,100269.66
2023-02-17T09:21:50.635Z,100269.50
2023-02-17T09:24:18.459Z,100274.25
2023-02-17T09:26:45.658Z,100277.63
2023-02-17T09:29:12.810Z,100286.34
2023-02-17T09:31:40.320Z,100291.78
2023-02-17T09:34:07.615Z,100295.75
2023-02-17T09:36:39.575Z,100309.19
2023-02-17T09:39:08.654Z,100288.94
2023-02-17T09:41:39.311Z,100291.47
2023-02-17T09:44:16.214Z,100296.91
2023-02-17T09:47:00.800Z,100287.41
2023-02-17T09:49:34.985Z,100291.47
2023-02-17T09:52:08.846Z,100303.44
2023-02-17T09:54:43.972Z,100286.59
2023-02-17T09:57:14.925Z,100294.19
2023-02-17T09:59:47.080Z,100299.38
2023-02-17T10:02:24.375Z,100291.34
2023-02-17T10:04:54.080Z,100295.31
2023-02-17T10:07:28.012Z,100289.69
2023-02-17T10:10:04.478Z,100296.69
2023-02-17T10:12:36.233Z,100297.16
2023-02-17T10:15:04.884Z,100305.06
2023-02-17T10:17:35.049Z,100295.50
2023-02-17T10:20:06.731Z,100292.28
2023-02-17T10:22:34.548Z,100292.63
2023-02-17T10:25:15.119Z,100302.41
2023-02-17T10:27:45.694Z,100307.28
2023-02-17T10:30:30.727Z,100293.34
2023-02-17T10:33:10.382Z,100298.09
2023-02-17T10:35:50.031Z,100298.28
2023-02-17T10:38:19.044Z,100299.31
2023-02-17T10:40:51.072Z,100302.00
2023-02-17T10:43:24.408Z,100300.69
2023-02-17T10:45:51.628Z,100312.66
2023-02-17T10:48:21.983Z,100303.09
2023-02-17T10:50:49.738Z,100310.63
2023-02-17T10:53:19.496Z,100303.28
2023-02-17T10:55:56.958Z,100312.16
2023-02-17T10:58:28.791Z,100302.78
2023-02-17T11:00:56.684Z,100302.66
2023-02-17T11:03:26.821Z,100297.22
2023-02-17T11:05:56.510Z,100289.03
2023-02-17T11:08:29.896Z,100290.25
2023-02-17T11:11:04.261Z,100292.31
2023-02-17T11:13:35.288Z,100288.25
2023-02-17T11:16:03.321Z,100274.59
2023-02-17T11:18:33.950Z,100274.25
2023-02-17T11:21:03.912Z,100277.34
2023-02-17T11:23:31.300Z,100269.34
2023-02-17T11:26:07.789Z,100267.13
2023-02-17T11:28:35.348Z,100268.66
2023-02-17T11:31:02.913Z,100265.63
2023-02-17T11:33:34.156Z,100266.09
2023-02-17T11:36:02.160Z,100265.97
2023-02-17T11:38:34.536Z,100257.63
2023-02-17T11:41:05.074Z,100257.78
2023-02-17T11:43:32.465Z,100258.13
2023-02-17T11:46:10.997Z,100255.56
2023-02-17T11:49:00.576Z,100261.50
2023-02-17T11:51:36.712Z,100262.84
2023-02-17T11:54:13.077Z,100260.28
2023-02-17T11:56:46.913Z,100245.94
2023-02-17T11:59:32.284Z,100233.66
2023-02-17T12:02:15.626Z,100239.28
2023-02-17T12:04:52.804Z,100230.75
2023-02-17T12:07:46.444Z,100229.53
2023-02-17T12:10:22.333Z,100221.34
2023-02-17T12:13:05.127Z,100219.63
2023-02-17T12:15:48.851Z,100221.78
2023-02-17T12:18:33.498Z,100219.22
2023-02-17T12:21:09.022Z,100214.25
2023-02-17T12:23:59.555Z,100209.97
2023-02-17T12:26:36.169Z,100209.13
2023-02-17T12:29:25.677Z,100198.38
2023-02-17T12:32:04.596Z,100199.19
2023-02-17T12:34:34.827Z,100199.19
2023-02-17T12:37:04.110Z,100189.03
2023-02-17T12:39:35.016Z,100191.94
2023-02-17T12:42:07.055Z,100204.25
2023-02-17T12:44:42.597Z,100193.16
2023-02-17T12:47:13.919Z,100189.63
2023-02-17T12:49:45.957Z,100188.75
2023-02-17T12:52:18.196Z,100188.06
2023-02-17T12:54:49.861Z,100186.88
2023-02-17T12:57:22.279Z,100178.13
2023-02-17T12:59:52.512Z,100182.91
2023-02-17T13:02:22.484Z,100176.44
2023-02-17T13:04:52.581Z,100173.19
2023-02-17T13:07:39.532Z,100164.47
2023-02-17T13:10:19.592Z,100157.28
2023-02-17T13:12:57.087Z,100157.13
2023-02-17T13:15:31.120Z,100162.94
2023-02-17T13:18:00.286Z,100178.50
2023-02-17T13:20:40.031Z,100166.50
2023-02-17T13:23:10.607Z,100164.09
2023-02-17T13:25:38.062Z,100165.94
2023-02-17T13:28:31.818Z,100168.34
2023-02-17T13:31:12.614Z,100161.34
2023-02-17T13:33:43.100Z,100164.78
2023-02-17T13:36:34.946Z,100156.03
2023-02-17T13:42:57.408Z,100150.41
2023-02-17T13:45:28.222Z,100150.41
2023-02-17T13:47:58.408Z,100153.63
2023-02-17T13:50:28.567Z,100149.91
2023-02-17T13:52:56.326Z,100151.03
2023-02-17T13:55:24.290Z,100159.25
2023-02-17T13:57:52.952Z,100162.66
2023-02-17T14:00:22.666Z,100166.94
2023-02-17T14:02:51.319Z,100159.94
2023-02-17T14:05:23.173Z,100163.31
2023-02-17T14:07:58.698Z,100159.59
2023-02-17T14:10:27.048Z,100144.88
2023-02-17T14:12:55.399Z,100148.03
2023-02-17T14:15:25.905Z,100120.34
2023-02-17T14:17:53.607Z,100116.22
2023-02-17T14:20:27.849Z,100113.19
2023-02-17T14:23:06.983Z,100124.41
2023-02-17T14:25:37.390Z,100132.06
2023-02-17T14:28:17.056Z,100128.97
2023-02-17T14:30:44.389Z,100114.81
2023-02-17T14:33:21.123Z,100107.66
2023-02-17T14:35:55.557Z,100109.72
2023-02-17T14:38:25.642Z,100113.47
2023-02-17T14:40:52.805Z,100119.47
2023-02-17T14:43:19.970Z,100126.34
2023-02-17T14:45:47.585Z,100130.06
2023-02-17T14:48:14.781Z,100120.47
2023-02-17T14:50:42.652Z,100118.22
2023-02-17T14:53:23.553Z,100114.66
2023-02-17T14:55:56.028Z,100110.88
2023-02-17T14:58:25.868Z,100122.34
2023-02-17T15:00:53.057Z,100128.00
2023-02-17T15:03:20.233Z,100133.09
2023-02-17T15:05:47.592Z,100122.66
2023-02-17T15:08:18.474Z,100127.47
2023-02-17T15:10:46.084Z,100134.63
2023-02-17T15:13:15.545Z,100136.19
2023-02-17T15:15:42.742Z,100129.53
2023-02-17T15:18:10.014Z,100125.75
2023-02-17T15:20:37.385Z,100121.81
2023-02-17T15:23:10.431Z,100114.13
2023-02-17T15:25:38.967Z,100133.47
2023-02-17T15:28:06.487Z,100133.66
2023-02-17T15:30:35.244Z,100130.53
2023-02-17T15:33:03.111Z,100123.72
2023-02-17T15:35:30.303Z,100116.34
2023-02-17T15:37:57.506Z,100113.25
2023-02-17T15:40:26.735Z,100110.41
2023-02-17T15:42:57.474Z,100110.41
2023-02-17T15:45:24.963Z,100095.84
2023-02-17T15:48:03.648Z,100091.78
2023-02-17T15:50:31.597Z,100100.69
2023-02-17T15:52:58.986Z,100101.38
2023-02-17T15:55:26.547Z,100097.59
2023-02-17T15:57:59.122Z,100109.75
2023-02-17T16:00:28.608Z,100108.41
2023-02-17T16:02:55.801Z,100124.34
2023-02-17T16:05:24.407Z,100128.28
2023-02-17T16:07:51.715Z,100123.84
2023-02-17T16:10:20.849Z,100118.75
2023-02-17T16:12:50.277Z,100123.34
2023-02-17T16:15:20.728Z,100114.13
2023-02-17T16:17:49.115Z,100113.97
2023-02-17T16:20:18.554Z,100105.13
2023-02-17T16:22:46.127Z,100107.69
2023-02-17T16:25:14.892Z,100104.44
2023-02-17T16:27:43.032Z,100108.91
2023-02-17T16:30:17.018Z,100114.88
2023-02-17T16:32:46.329Z,100111.97
2023-02-17T16:35:15.371Z,100123.75
2023-02-17T16:37:49.178Z,100120.19
2023-02-17T16:40:19.433Z,100115.06
2023-02-17T16:42:46.689Z,100113.38
2023-02-17T16:45:15.801Z,100112.38
2023-02-17T16:47:48.541Z,100110.50
2023-02-17T16:50:24.641Z,100115.78
2023-02-17T16:52:53.482Z,100116.63
2023-02-17T16:55:22.347Z,100122.78
2023-02-17T16:57:50.213Z,100135.22
2023-02-17T17:00:21.078Z,100129.94
2023-02-17T17:02:50.250Z,100142.56
2023-02-17T17:05:19.039Z,100139.66
2023-02-17T17:07:46.865Z,100137.28
2023-02-17T17:10:17.267Z,100148.19
2023-02-17T17:12:45.858Z,100148.38
2023-02-17T17:15:13.560Z,100140.91
2023-02-17T17:17:43.830Z,100143.50
2023-02-17T17:20:17.528Z,100140.25
2023-02-17T17:22:45.137Z,100127.63
2023-02-17T17:25:12.825Z,100148.09
2023-02-17T17:27:40.209Z,100156.81
2023-02-17T17:30:14.897Z,100157.31
2023-02-17T17:32:42.136Z,100154.44
2023-02-17T17:35:09.280Z,100165.53
2023-02-17T17:37:39.487Z,100166.22
2023-02-17T17:40:14.284Z,100157.31
2023-02-17T17:42:41.516Z,100163.81
2023-02-17T17:45:08.791Z,100173.91
2023-02-17T17:47:35.976Z,100180.88
2023-02-17T17:50:03.503Z,100174.75
2023-02-17T17:52:30.681Z,100182.63
2023-02-17T17:54:59.326Z,100187.03
2023-02-17T17:57:26.507Z,100201.53
2023-02-17T17:59:53.739Z,100202.22
2023-02-17T18:02:20.886Z,100200.34
2023-02-17T18:04:48.163Z,100219.28
2023-02-17T18:07:15.546Z,100214.50
2023-02-17T18:09:42.942Z,100219.50
2023-02-17T18:12:14.156Z,100224.59
2023-02-17T18:14:43.101Z,100230.91
2023-02-17T18:17:13.394Z,100224.59
2023-02-17T18:19:41.073Z,100232.59
2023-02-17T18:22:08.300Z,100239.97
2023-02-17T18:24:35.501Z,100230.22
2023-02-17T18:27:02.861Z,100236.53
2023-02-17T18:29:31.379Z,100239.44
2023-02-17T18:31:58.600Z,100257.19
2023-02-17T18:34:26.193Z,100251.06
2023-02-17T18:36:53.609Z,100254.31
2023-02-17T18:39:20.780Z,100255.19
2023-02-17T18:41:47.932Z,100252.06
2023-02-17T18:44:15.139Z,100257.38
2023-02-17T18:46:43.770Z,100259.78
2023-02-17T18:49:10.953Z,100263.03
2023-02-17T18:51:38.284Z,100271.56
2023-02-17T18:54:05.584Z,100278.56
2023-02-17T18:56:33.120Z,100294.81
2023-02-17T18:59:00.682Z,100280.13
2023-02-17T19:01:31.673Z,100290.69
2023-02-17T19:04:00.659Z,100296.50
2023-02-17T19:06:31.374Z,100293.44
2023-02-17T19:09:00.269Z,100299.56
2023-02-17T19:11:27.452Z,100302.13
2023-02-17T19:13:54.668Z,100306.06
2023-02-17T19:16:24.201Z,100303.19
2023-02-17T19:18:52.110Z,100315.13
2023-02-17T19:21:21.275Z,100310.00
2023-02-17T19:23:49.193Z,100324.16
2023-02-17T19:26:17.600Z,100329.63
2023-02-17T19:28:45.294Z,100334.44
2023-02-17T19:31:14.175Z,100325.38
2023-02-17T19:33:41.619Z,100340.38
2023-02-17T19:36:10.939Z,100344.66
2023-02-17T19:38:39.711Z,100356.78
2023-02-17T19:41:09.314Z,100351.31
2023-02-17T19:43:36.761Z,100354.56
2023-02-17T19:46:04.502Z,100355.94
2023-02-17T19:48:31.820Z,100352.19
2023-02-17T19:51:00.678Z,100365.50
2023-02-17T19:53:28.476Z,100367.19
2023-02-17T19:56:07.184Z,100372.16
2023-02-17T19:58:35.205Z,100373.16
2023-02-17T20:01:06.485Z,100373.34
2023-02-17T20:03:34.150Z,100381.69
2023-02-17T20:06:06.726Z,100377.94
2023-02-17T20:08:34.705Z,100382.03
2023-02-17T20:11:07.773Z,100400.44
2023-02-17T20:13:45.269Z,100394.78
2023-02-17T20:16:15.743Z,100391.22
2023-02-17T20:18:44.530Z,100400.56
2023-02-17T20:21:13.969Z,100401.41
2023-02-17T20:23:41.287Z,100410.94
2023-02-17T20:26:13.008Z,100418.59
2023-02-17T20:28:40.084Z,100421.19
2023-02-17T20:31:07.977Z,100417.53
2023-02-17T20:33:35.547Z,100413.25
2023-02-17T20:36:03.175Z,100418.72
2023-02-17T20:38:30.324Z,100408.34
2023-02-17T20:40:58.321Z,100403.34
2023-02-17T20:43:26.933Z,100396.06
2023-02-17T20:45:54.431Z,100393.50
2023-02-17T20:48:21.627Z,100390.94
2023-02-17T20:50:48.994Z,100395.91
2023-02-17T20:53:16.211Z,100393.69
2023-02-17T20:55:43.327Z,100388.44
2023-02-17T20:58:10.641Z,100391.84
2023-02-17T21:00:39.327Z,100389.47
2023-02-17T21:03:06.630Z,100402.53
2023-02-17T21:05:34.025Z,100400.84
2023-02-17T21:08:01.201Z,100409.03
2023-02-17T21:10:30.555Z,100408.88
2023-02-17T21:12:57.843Z,100407.00
2023-02-17T21:15:25.156Z,100412.47
2023-02-17T21:17:53.698Z,100411.91
2023-02-17T21:20:21.762Z,100410.38
2023-02-17T21:22:49.811Z,100424.88
2023-02-17T21:25:17.288Z,100425.72
2023-02-17T21:27:45.000Z,100422.94
2023-02-17T21:30:13.256Z,100432.38
2023-02-17T21:32:41.035Z,100412.22
2023-02-17T21:35:10.339Z,100425.88
2023-02-17T21:37:37.946Z,100423.84
2023-02-17T21:40:06.555Z,100418.72
2023-02-17T21:42:33.793Z,100429.47
2023-02-17T21:45:00.996Z,100427.44
2023-02-17T21:47:28.180Z,100422.31
2023-02-17T21:49:55.321Z,100419.06
2023-02-17T21:52:23.893Z,100417.34
2023-02-17T21:54:51.109Z,100410.00
2023-02-17T21:57:18.276Z,100414.09
2023-02-17T21:59:45.478Z,100412.22
2023-02-17T22:02:12.771Z,100418.84
2023-02-17T22:04:39.974Z,100420.22
2023-02-17T22:07:07.175Z,100424.50
2023-02-17T22:09:35.725Z,100429.56
2023-02-17T22:12:03.138Z,100434.00
2023-02-17T22:14:30.373Z,100443.03
2023-02-17T22:16:57.507Z,100450.53
2023-02-17T22:19:25.274Z,100446.78
2023-02-17T22:21:52.607Z,100446.44
2023-02-17T22:24:20.080Z,100440.81
2023-02-17T22:26:49.362Z,100443.53
2023-02-17T22:29:16.562Z,100444.22
2023-02-17T22:31:43.866Z,100446.59
2023-02-17T22:34:13.376Z,100448.44
2023-02-17T22:36:40.830Z,100442.47
2023-02-17T22:39:08.956Z,100453.34
2023-02-17T22:41:36.342Z,100454.19
2023-02-17T22:44:05.267Z,100447.19
2023-02-17T22:46:33.315Z,100447.72
2023-02-17T22:49:01.232Z,100454.00
2023-02-17T22:51:30.864Z,100443.59
2023-02-17T22:53:59.650Z,100446.69
2023-02-17T22:56:27.659Z,100445.00
2023-02-17T22:58:54.942Z,100440.56
2023-02-17T23:01:24.557Z,100444.69
2023-02-17T23:03:53.938Z,100435.78
2023-02-17T23:06:23.588Z,100433.06
2023-02-17T23:08:51.567Z,100424.72
2023-02-17T23:11:21.793Z,100410.59
2023-02-17T23:13:48.926Z,100421.84
2023-02-17T23:16:19.206Z,100416.22
2023-02-17T23:18:47.764Z,100417.06
2023-02-17T23:21:14.946Z,100421.13
2023-02-17T23:23:42.224Z,100434.97
2023-02-17T23:26:09.600Z,100435.84
2023-02-17T23:28:36.946Z,100437.53
2023-02-17T23:31:04.396Z,100436.34
2023-02-17T23:33:31.743Z,100441.81
2023-02-17T23:36:03.402Z,100444.53
2023-02-17T23:38:31.455Z,100451.88
2023-02-17T23:40:58.855Z,100432.09
2023-02-17T23:43:26.129Z,100439.28
2023-02-17T23:45:55.406Z,100434.97
2023-02-17T23:48:22.840Z,100434.97
2023-02-17T23:50:55.799Z,100436.53
2023-02-17T23:53:24.713Z,100442.16
2023-02-17T23:56:00.672Z,100447.59
2023-02-17T23:58:27.876Z,100432.94
